Llanfyllin, United Kingdom
Current Conditions -  °F | °C
As of 8:50 AM on Saturday 29 Nov 2014 (Local Time) from EGOS Reporting Station
Haze Haze  
Wind Chill: 50°   Ceiling: 700
Heat Index: 50°   Visibility: 2.8mi
Dew Point: 48°   Wind: 8mph
Humidity: 94%   Direction: 100°E
Pressure: 29.83"   Gusts: NA
Location:  52.77°N, 3.27°W
Report Text: EGOS 290850Z AUTO 10007KT 4500 BR OVC007/// 10/09 Q1010
Loading
Personal Weather Stations






























Interactive Weather Map New forecast layout! Learn more

10-Day Weather Forecast

Advertisements
Track Severe Weather on mobile